createdAt,value
2019-05-26T00:02:24.920Z,30.77
2019-05-26T00:05:00.699Z,29.48
2019-05-26T00:07:30.913Z,31.12
2019-05-26T00:10:01.237Z,30.65
2019-05-26T00:14:59.092Z,29.67
2019-05-26T00:17:27.760Z,28.92
2019-05-26T00:19:56.173Z,27.77
2019-05-26T00:22:24.573Z,30.40
2019-05-26T00:24:53.165Z,27.10
2019-05-26T00:27:21.774Z,28.15
2019-05-26T00:29:50.614Z,30.08
2019-05-26T00:32:21.654Z,27.70
2019-05-26T00:34:50.401Z,26.85
2019-05-26T00:37:21.280Z,26.65
2019-05-26T00:39:52.110Z,26.40
2019-05-26T00:42:23.936Z,26.27
2019-05-26T00:44:53.039Z,27.10
2019-05-26T00:47:21.446Z,27.17
2019-05-26T00:49:49.795Z,26.55
2019-05-26T00:52:18.248Z,24.75
2019-05-26T00:54:46.775Z,25.17
2019-05-26T00:57:15.424Z,24.40
2019-05-26T00:59:44.402Z,24.57
2019-05-26T01:02:12.947Z,22.82
2019-05-26T01:04:41.849Z,23.25
2019-05-26T01:07:10.268Z,21.35
2019-05-26T01:09:38.957Z,23.73
2019-05-26T01:12:07.518Z,23.42
2019-05-26T01:14:36.396Z,23.87
2019-05-26T01:17:04.961Z,22.82
2019-05-26T01:19:33.815Z,22.50
2019-05-26T01:22:02.408Z,21.30
2019-05-26T01:24:31.272Z,20.97
2019-05-26T01:26:59.795Z,20.25
2019-05-26T01:29:28.679Z,20.80
2019-05-26T01:31:59.546Z,21.50
2019-05-26T01:34:28.110Z,19.30
2019-05-26T01:36:56.723Z,20.92
2019-05-26T01:39:25.301Z,21.45
2019-05-26T01:41:53.729Z,21.97
2019-05-26T01:44:22.304Z,23.00
2019-05-26T01:46:50.945Z,24.37
2019-05-26T01:49:19.310Z,24.35
2019-05-26T01:51:47.788Z,25.02
2019-05-26T01:54:16.476Z,24.20
2019-05-26T01:56:45.060Z,24.40
2019-05-26T01:59:13.616Z,23.85
2019-05-26T02:01:42.147Z,24.15
2019-05-26T02:04:11.550Z,24.02
2019-05-26T02:06:41.137Z,23.20
2019-05-26T02:09:09.458Z,23.38
2019-05-26T02:11:37.987Z,25.08
2019-05-26T02:14:06.402Z,25.35
2019-05-26T02:16:34.684Z,24.80
2019-05-26T02:19:03.164Z,26.30
2019-05-26T02:21:31.461Z,25.75
2019-05-26T02:23:59.723Z,28.02
2019-05-26T02:26:28.312Z,28.32
2019-05-26T02:28:57.194Z,30.45
2019-05-26T02:31:25.688Z,29.55
2019-05-26T02:33:54.197Z,28.30
2019-05-26T02:36:22.972Z,28.38
2019-05-26T02:39:01.874Z,29.20
2019-05-26T02:43:49.393Z,29.20
2019-05-26T02:46:18.161Z,30.37
2019-05-26T02:48:46.810Z,30.65
2019-05-26T02:51:15.689Z,32.13
2019-05-26T02:53:43.983Z,32.13
2019-05-26T02:56:12.530Z,32.23
2019-05-26T02:58:41.246Z,32.10
2019-05-26T03:01:10.075Z,31.95
2019-05-26T03:03:38.548Z,32.35
2019-05-26T03:06:06.970Z,33.15
2019-05-26T03:08:35.439Z,30.80
2019-05-26T03:11:04.311Z,28.83
2019-05-26T03:14:11.118Z,30.30
2019-05-26T03:16:39.972Z,34.50
2019-05-26T03:19:08.544Z,34.88
2019-05-26T03:21:37.189Z,37.50
2019-05-26T03:24:05.890Z,33.67
2019-05-26T03:26:34.765Z,33.73
2019-05-26T03:29:03.184Z,34.67
2019-05-26T03:31:32.041Z,35.03
2019-05-26T03:34:01.011Z,37.08
2019-05-26T03:36:29.915Z,38.77
2019-05-26T03:42:39.688Z,35.00
2019-05-26T03:45:08.744Z,33.58
2019-05-26T03:47:37.485Z,32.50
2019-05-26T03:50:07.443Z,32.35
2019-05-26T03:52:36.290Z,33.23
2019-05-26T03:55:06.552Z,30.00
2019-05-26T03:57:35.113Z,28.73
2019-05-26T04:00:08.005Z,28.25
2019-05-26T04:02:36.677Z,27.10
2019-05-26T04:05:06.723Z,25.50
2019-05-26T04:10:07.465Z,24.43
2019-05-26T04:12:36.163Z,20.88
2019-05-26T04:15:06.650Z,20.50
2019-05-26T04:17:35.310Z,20.62
2019-05-26T04:20:04.817Z,21.40
2019-05-26T04:22:36.442Z,19.10
2019-05-26T04:25:08.356Z,21.68
2019-05-26T04:27:38.555Z,20.48
2019-05-26T04:30:08.759Z,21.07
2019-05-26T04:32:38.363Z,21.50
2019-05-26T04:35:12.776Z,19.95
2019-05-26T04:37:41.295Z,17.73
2019-05-26T04:40:25.585Z,16.07
2019-05-26T04:42:40.086Z,15.05
2019-05-26T04:45:08.631Z,21.23
2019-05-26T04:47:37.261Z,21.30
2019-05-26T04:50:06.054Z,21.65
2019-05-26T04:52:36.857Z,21.17
2019-05-26T04:55:07.720Z,21.33
2019-05-26T04:57:36.466Z,21.73
2019-05-26T05:00:05.848Z,21.10
2019-05-26T05:02:34.727Z,18.98
2019-05-26T05:05:04.551Z,19.02
2019-05-26T05:07:32.994Z,18.65
2019-05-26T05:10:01.542Z,17.73
2019-05-26T05:12:30.391Z,18.32
2019-05-26T05:14:59.484Z,16.90
2019-05-26T05:17:35.337Z,16.83
2019-05-26T05:20:07.198Z,17.65
2019-05-26T05:22:36.752Z,15.85
2019-05-26T05:25:14.666Z,16.95
2019-05-26T05:27:38.946Z,16.10
2019-05-26T05:30:11.017Z,17.00
2019-05-26T05:32:45.298Z,15.25
2019-05-26T05:35:18.324Z,16.27
2019-05-26T05:37:48.073Z,16.15
2019-05-26T05:40:18.686Z,15.18
2019-05-26T05:42:47.361Z,15.88
2019-05-26T05:45:23.754Z,15.90
2019-05-26T05:47:58.807Z,15.03
2019-05-26T05:50:30.420Z,15.70
2019-05-26T05:53:03.120Z,16.95
2019-05-26T05:55:32.849Z,14.73
2019-05-26T05:58:05.991Z,15.45
2019-05-26T06:00:37.701Z,14.98
2019-05-26T06:03:07.197Z,14.87
2019-05-26T06:05:41.639Z,15.48
2019-05-26T06:08:19.600Z,15.15
2019-05-26T06:10:51.109Z,14.23
2019-05-26T06:13:20.703Z,14.30
2019-05-26T06:15:49.541Z,14.13
2019-05-26T06:18:19.462Z,13.97
2019-05-26T06:20:48.746Z,13.95
2019-05-26T06:23:17.489Z,14.43
2019-05-26T06:25:54.218Z,14.93
2019-05-26T06:28:23.858Z,13.90
2019-05-26T06:30:54.614Z,14.15
2019-05-26T06:33:23.639Z,15.13
2019-05-26T06:35:54.711Z,15.68
2019-05-26T06:38:24.068Z,18.80
2019-05-26T06:40:53.540Z,18.87
2019-05-26T06:43:22.718Z,17.62
2019-05-26T06:45:53.226Z,16.73
2019-05-26T06:48:22.247Z,18.02
2019-05-26T06:50:54.365Z,18.02
2019-05-26T06:53:24.209Z,16.70
2019-05-26T06:55:54.303Z,17.48
2019-05-26T06:58:22.893Z,16.90
2019-05-26T07:00:53.593Z,16.93
2019-05-26T07:03:24.060Z,15.65
2019-05-26T07:05:56.281Z,14.93
2019-05-26T07:08:25.642Z,16.23
2019-05-26T07:10:54.431Z,15.05
2019-05-26T07:13:23.818Z,13.40
2019-05-26T07:15:53.563Z,12.98
2019-05-26T07:18:22.367Z,13.88
2019-05-26T07:20:50.827Z,12.43
2019-05-26T07:23:20.012Z,12.00
2019-05-26T07:25:48.920Z,10.95
2019-05-26T07:28:18.330Z,11.20
2019-05-26T07:30:47.455Z,10.88
2019-05-26T07:33:16.429Z,11.20
2019-05-26T07:35:44.902Z,10.93
2019-05-26T07:38:13.701Z,11.17
2019-05-26T07:40:44.040Z,11.15
2019-05-26T07:43:13.006Z,12.25
2019-05-26T07:45:42.619Z,11.68
2019-05-26T07:48:12.120Z,10.80
2019-05-26T07:53:09.468Z,11.20
2019-05-26T07:55:38.928Z,11.90
2019-05-26T07:58:08.361Z,11.63
2019-05-26T08:00:37.389Z,11.43
2019-05-26T08:03:06.126Z,11.15
2019-05-26T08:05:35.577Z,11.33
2019-05-26T08:10:34.857Z,11.10
2019-05-26T08:13:04.363Z,10.98
2019-05-26T08:18:03.141Z,11.28
2019-05-26T08:20:32.183Z,8.88
2019-05-26T08:23:02.066Z,8.53
2019-05-26T08:25:31.070Z,8.18
2019-05-26T08:28:00.699Z,8.25
2019-05-26T08:30:30.026Z,10.20
2019-05-26T08:35:28.399Z,7.62
2019-05-26T08:37:57.636Z,8.65
2019-05-26T08:40:26.078Z,8.23
2019-05-26T08:42:54.825Z,7.67
2019-05-26T08:45:24.281Z,8.73
2019-05-26T08:47:53.319Z,8.93
2019-05-26T08:50:22.451Z,8.68
2019-05-26T08:52:53.516Z,8.73
2019-05-26T08:55:23.370Z,8.03
2019-05-26T08:57:52.454Z,8.00
2019-05-26T09:00:21.923Z,8.03
2019-05-26T09:02:50.648Z,8.20
2019-05-26T09:05:19.894Z,7.62
2019-05-26T09:10:16.767Z,8.30
2019-05-26T09:12:59.574Z,8.98
2019-05-26T09:15:18.572Z,8.08
2019-05-26T09:17:48.167Z,8.80
2019-05-26T09:20:17.606Z,8.30
2019-05-26T09:22:46.297Z,7.50
2019-05-26T09:25:15.863Z,8.33
2019-05-26T09:27:47.530Z,8.20
2019-05-26T09:30:17.203Z,8.28
2019-05-26T09:32:45.904Z,7.62
2019-05-26T09:35:14.467Z,6.92
2019-05-26T09:37:46.759Z,7.60
2019-05-26T09:40:16.723Z,6.95
2019-05-26T09:42:46.189Z,7.95
2019-05-26T09:45:15.595Z,7.20
2019-05-26T09:47:46.881Z,7.15
2019-05-26T09:50:17.022Z,8.13
2019-05-26T09:52:45.940Z,6.90
2019-05-26T09:55:16.286Z,7.30
2019-05-26T09:57:44.791Z,7.65
2019-05-26T10:00:15.984Z,6.83
2019-05-26T10:02:59.062Z,7.42
2019-05-26T10:05:28.339Z,6.80
2019-05-26T10:10:33.569Z,7.65
2019-05-26T10:13:03.322Z,6.47
2019-05-26T10:15:35.898Z,8.68
2019-05-26T10:18:04.855Z,8.98
2019-05-26T10:20:34.656Z,8.58
2019-05-26T10:25:34.500Z,8.85
2019-05-26T10:28:03.057Z,9.10
2019-05-26T10:30:33.633Z,8.38
2019-05-26T10:33:02.329Z,8.53
2019-05-26T10:35:41.034Z,8.63
2019-05-26T10:38:22.653Z,9.20
2019-05-26T10:40:59.797Z,10.20
2019-05-26T10:43:30.009Z,9.23
2019-05-26T10:45:59.101Z,7.95
2019-05-26T10:48:42.916Z,7.75
2019-05-26T10:51:19.074Z,7.67
2019-05-26T10:53:49.443Z,8.10
2019-05-26T10:59:10.411Z,8.23
2019-05-26T11:01:43.680Z,7.33
2019-05-26T11:04:13.789Z,6.67
2019-05-26T11:06:43.454Z,6.72
2019-05-26T11:09:13.206Z,6.58
2019-05-26T11:11:41.846Z,6.17
2019-05-26T11:14:12.093Z,6.55
2019-05-26T11:16:42.240Z,7.65
2019-05-26T11:19:10.876Z,7.58
2019-05-26T11:21:39.692Z,5.42
2019-05-26T11:24:08.293Z,5.12
2019-05-26T11:26:37.499Z,4.40
2019-05-26T11:29:06.560Z,4.83
2019-05-26T11:31:36.247Z,4.35
2019-05-26T11:34:04.937Z,4.87
2019-05-26T11:36:33.730Z,6.35
2019-05-26T11:39:02.465Z,7.50
2019-05-26T11:41:32.517Z,5.90
2019-05-26T11:44:17.502Z,5.33
2019-05-26T11:46:41.895Z,5.08
2019-05-26T11:49:11.022Z,4.08
2019-05-26T11:51:39.637Z,5.28
2019-05-26T11:54:08.231Z,4.58
2019-05-26T11:56:38.386Z,3.98
2019-05-26T11:59:08.404Z,4.87
2019-05-26T12:01:36.722Z,4.15
2019-05-26T12:04:05.297Z,3.98
2019-05-26T12:06:33.846Z,3.90
2019-05-26T12:09:02.625Z,4.87
2019-05-26T12:11:31.407Z,4.47
2019-05-26T12:13:59.871Z,4.37
2019-05-26T12:16:28.955Z,4.53
2019-05-26T12:18:58.559Z,4.58
2019-05-26T12:21:27.126Z,4.42
2019-05-26T12:23:56.188Z,4.12
2019-05-26T12:26:24.878Z,4.00
2019-05-26T12:28:56.578Z,4.15
2019-05-26T12:31:25.372Z,4.08
2019-05-26T12:33:54.472Z,4.35
2019-05-26T12:36:22.921Z,5.15
2019-05-26T12:38:51.790Z,3.50
2019-05-26T12:41:21.861Z,3.87
2019-05-26T12:43:52.267Z,3.85
2019-05-26T12:46:20.453Z,3.45
2019-05-26T12:48:48.788Z,2.92
2019-05-26T12:51:17.811Z,3.70
2019-05-26T12:53:46.950Z,3.30
2019-05-26T12:56:15.422Z,3.50
2019-05-26T12:58:44.107Z,3.22
2019-05-26T13:01:12.683Z,3.65
2019-05-26T13:03:41.439Z,3.30
2019-05-26T13:06:09.863Z,3.20
2019-05-26T13:08:39.245Z,3.52
2019-05-26T13:11:08.003Z,3.47
2019-05-26T13:13:36.332Z,3.17
2019-05-26T13:16:05.076Z,3.77
2019-05-26T13:18:33.475Z,3.77
2019-05-26T13:21:01.853Z,3.20
2019-05-26T13:23:30.390Z,3.55
2019-05-26T13:25:59.250Z,3.33
2019-05-26T13:28:28.387Z,3.10
2019-05-26T13:30:58.375Z,3.52
2019-05-26T13:33:27.479Z,4.00
2019-05-26T13:35:56.113Z,3.10
2019-05-26T13:38:24.910Z,3.50
2019-05-26T13:40:54.102Z,3.98
2019-05-26T13:43:24.142Z,3.27
2019-05-26T13:45:52.840Z,3.22
2019-05-26T13:48:21.986Z,3.33
2019-05-26T13:50:50.564Z,2.80
2019-05-26T13:53:20.811Z,3.25
2019-05-26T13:55:51.402Z,2.58
2019-05-26T13:58:20.831Z,2.92
2019-05-26T14:00:51.589Z,3.25
2019-05-26T14:03:20.233Z,3.00
2019-05-26T14:05:48.798Z,3.27
2019-05-26T14:08:17.610Z,3.27
2019-05-26T14:10:46.659Z,3.30
2019-05-26T14:13:15.259Z,2.90
2019-05-26T14:15:43.986Z,3.17
2019-05-26T14:18:13.623Z,3.37
2019-05-26T14:20:43.099Z,3.20
2019-05-26T14:23:11.950Z,3.45
2019-05-26T14:25:41.584Z,3.53
2019-05-26T14:28:10.158Z,2.87
2019-05-26T14:30:39.444Z,3.35
2019-05-26T14:33:08.145Z,3.35
2019-05-26T14:35:36.613Z,3.58
2019-05-26T14:38:07.086Z,3.62
2019-05-26T14:40:35.678Z,2.87
2019-05-26T14:43:04.477Z,2.80
2019-05-26T14:45:32.861Z,2.95
2019-05-26T14:48:01.473Z,2.72
2019-05-26T14:50:30.572Z,2.80
2019-05-26T14:52:59.573Z,2.92
2019-05-26T14:55:31.882Z,2.83
2019-05-26T14:58:14.264Z,3.05
2019-05-26T15:00:32.224Z,3.25
2019-05-26T15:03:04.117Z,3.47
2019-05-26T15:05:32.937Z,3.35
2019-05-26T15:08:01.797Z,3.70
2019-05-26T15:10:32.921Z,3.47
2019-05-26T15:13:02.283Z,3.77
2019-05-26T15:15:35.156Z,3.45
2019-05-26T15:18:04.218Z,3.62
2019-05-26T15:20:32.970Z,3.42
2019-05-26T15:23:01.552Z,3.83
2019-05-26T15:25:30.637Z,3.20
2019-05-26T15:27:59.296Z,3.70
2019-05-26T15:30:27.907Z,3.62
2019-05-26T15:32:57.101Z,3.10
2019-05-26T15:35:28.059Z,3.37
2019-05-26T15:37:56.418Z,3.60
2019-05-26T15:40:25.113Z,4.28
2019-05-26T15:42:56.825Z,4.45
2019-05-26T15:45:26.244Z,4.25
2019-05-26T15:47:58.604Z,4.70
2019-05-26T15:50:27.752Z,4.35
2019-05-26T15:52:56.486Z,4.45
2019-05-26T15:55:26.059Z,4.28
2019-05-26T15:57:58.186Z,4.78
2019-05-26T16:00:26.160Z,4.47
2019-05-26T16:02:55.828Z,4.97
2019-05-26T16:05:24.314Z,4.35
2019-05-26T16:07:53.061Z,4.70
2019-05-26T16:10:22.454Z,4.90
2019-05-26T16:12:51.130Z,5.42
2019-05-26T16:15:19.615Z,4.65
2019-05-26T16:17:48.158Z,4.97
2019-05-26T16:20:16.648Z,5.37
2019-05-26T16:22:45.800Z,5.25
2019-05-26T16:25:14.350Z,5.65
2019-05-26T16:27:43.135Z,4.97
2019-05-26T16:30:11.977Z,5.33
2019-05-26T16:32:40.407Z,5.08
2019-05-26T16:35:10.200Z,4.37
2019-05-26T16:37:39.090Z,5.03
2019-05-26T16:40:07.851Z,5.00
2019-05-26T16:42:37.095Z,4.37
2019-05-26T16:45:06.703Z,4.85
2019-05-26T16:47:39.629Z,3.80
2019-05-26T16:50:08.615Z,3.67
2019-05-26T16:52:37.837Z,4.00
2019-05-26T16:55:07.297Z,4.30
2019-05-26T16:57:35.963Z,5.70
2019-05-26T17:00:07.481Z,5.00
2019-05-26T17:02:36.358Z,4.37
2019-05-26T17:05:09.361Z,4.65
2019-05-26T17:07:38.665Z,4.22
2019-05-26T17:10:08.187Z,3.75
2019-05-26T17:12:37.368Z,3.67
2019-05-26T17:15:09.403Z,3.60
2019-05-26T17:17:38.117Z,3.30
2019-05-26T17:20:07.337Z,3.80
2019-05-26T17:22:36.759Z,5.23
2019-05-26T17:25:07.265Z,4.60
2019-05-26T17:27:36.039Z,4.60
2019-05-26T17:30:06.999Z,4.70
2019-05-26T17:32:38.043Z,4.65
2019-05-26T17:35:07.717Z,4.58
2019-05-26T17:37:36.252Z,3.83
2019-05-26T17:40:06.576Z,3.70
2019-05-26T17:42:38.153Z,3.98
2019-05-26T17:45:08.893Z,3.70
2019-05-26T17:47:38.144Z,4.20
2019-05-26T17:50:07.195Z,3.90
2019-05-26T17:52:36.951Z,4.25
2019-05-26T17:55:07.558Z,4.40
2019-05-26T17:57:37.327Z,4.20
2019-05-26T18:00:13.169Z,4.75
2019-05-26T18:02:47.408Z,5.12
2019-05-26T18:05:16.408Z,4.22
2019-05-26T18:07:46.126Z,4.40
2019-05-26T18:10:15.191Z,4.85
2019-05-26T18:12:44.058Z,4.78
2019-05-26T18:15:13.298Z,5.00
2019-05-26T18:17:47.317Z,4.55
2019-05-26T18:20:12.801Z,5.05
2019-05-26T18:22:42.091Z,5.12
2019-05-26T18:25:13.903Z,5.47
2019-05-26T18:27:43.545Z,5.47
2019-05-26T18:30:12.675Z,5.22
2019-05-26T18:32:42.760Z,5.90
2019-05-26T18:35:12.496Z,5.67
2019-05-26T18:37:41.383Z,5.90
2019-05-26T18:40:10.451Z,5.45
2019-05-26T18:42:39.436Z,6.23
2019-05-26T18:45:14.871Z,6.70
2019-05-26T18:47:44.323Z,6.22
2019-05-26T18:50:13.946Z,6.22
2019-05-26T18:52:44.841Z,7.28
2019-05-26T18:55:15.473Z,6.10
2019-05-26T18:57:47.116Z,6.05
2019-05-26T19:00:15.825Z,5.90
2019-05-26T19:02:44.390Z,6.12
2019-05-26T19:05:14.209Z,6.20
2019-05-26T19:07:43.002Z,6.12
2019-05-26T19:10:12.769Z,6.05
2019-05-26T19:12:41.549Z,6.80
2019-05-26T19:15:10.269Z,6.17
2019-05-26T19:17:39.038Z,6.33
2019-05-26T19:20:16.183Z,6.95
2019-05-26T20:05:41.945Z,9.78
2019-05-26T20:08:12.104Z,10.23
2019-05-26T20:10:44.206Z,10.30
2019-05-26T20:13:15.296Z,9.53
2019-05-26T20:15:44.409Z,9.70
2019-05-26T20:18:13.084Z,10.80
2019-05-26T20:20:44.984Z,9.90
2019-05-26T20:23:13.578Z,9.28
2019-05-26T20:25:42.879Z,10.05
2019-05-26T20:28:11.332Z,10.78
2019-05-26T20:30:40.019Z,10.70
2019-05-26T20:33:08.627Z,10.55
2019-05-26T20:35:36.982Z,10.10
2019-05-26T20:38:05.585Z,9.73
2019-05-26T20:40:34.601Z,11.28
2019-05-26T20:43:04.659Z,10.45
2019-05-26T20:48:03.946Z,11.55
2019-05-26T20:50:32.743Z,11.80
2019-05-26T20:53:02.945Z,11.70
2019-05-26T20:55:33.285Z,11.10
2019-05-26T20:58:04.670Z,12.50
2019-05-26T21:00:38.292Z,11.93
2019-05-26T21:03:08.303Z,11.75
2019-05-26T21:08:07.036Z,12.23
2019-05-26T21:10:40.618Z,12.33
2019-05-26T21:13:09.073Z,13.18
2019-05-26T21:15:39.876Z,12.90
2019-05-26T21:18:11.610Z,13.20
2019-05-26T21:20:41.888Z,12.73
2019-05-26T21:23:11.342Z,12.93
2019-05-26T21:25:39.798Z,13.18
2019-05-26T21:28:09.630Z,14.15
2019-05-26T21:30:38.905Z,13.25
2019-05-26T21:33:09.335Z,14.50
2019-05-26T21:35:38.052Z,14.33
2019-05-26T21:38:06.616Z,14.38
2019-05-26T21:40:35.367Z,14.90
2019-05-26T21:43:06.591Z,14.93
2019-05-26T21:48:12.020Z,16.10
2019-05-26T21:50:41.275Z,16.82
2019-05-26T21:53:10.517Z,15.60
2019-05-26T21:55:43.441Z,15.45
2019-05-26T21:58:13.091Z,16.27
2019-05-26T22:00:44.306Z,16.30
2019-05-26T22:03:13.027Z,16.07
2019-05-26T22:05:41.291Z,17.15
2019-05-26T22:08:09.797Z,16.93
2019-05-26T22:10:38.054Z,16.67
2019-05-26T22:13:06.463Z,17.73
2019-05-26T22:15:35.461Z,17.67
2019-05-26T22:18:04.090Z,18.95
2019-05-26T22:20:32.839Z,16.85
2019-05-26T22:23:01.481Z,17.10
2019-05-26T22:25:30.094Z,17.23
2019-05-26T22:27:58.634Z,18.65
2019-05-26T22:30:27.383Z,16.97
2019-05-26T22:32:55.832Z,16.45
2019-05-26T22:35:24.142Z,16.97
2019-05-26T22:37:52.778Z,18.23
2019-05-26T22:40:21.898Z,18.60
2019-05-26T22:42:50.964Z,18.70
2019-05-26T22:45:19.815Z,19.83
2019-05-26T22:47:48.655Z,17.80
2019-05-26T22:50:17.056Z,17.55
2019-05-26T22:52:45.554Z,18.55
2019-05-26T22:55:13.866Z,18.05
2019-05-26T22:57:42.347Z,18.57
2019-05-26T23:00:11.494Z,17.32
2019-05-26T23:02:40.207Z,17.93
2019-05-26T23:05:08.983Z,18.40
2019-05-26T23:07:37.630Z,17.25
2019-05-26T23:10:07.885Z,18.48
2019-05-26T23:12:36.483Z,18.02
2019-05-26T23:15:06.750Z,18.17
2019-05-26T23:17:35.491Z,17.95
2019-05-26T23:20:04.533Z,17.40
2019-05-26T23:22:33.017Z,17.45
2019-05-26T23:25:01.354Z,17.32
2019-05-26T23:27:29.700Z,17.95
2019-05-26T23:29:58.126Z,18.52
2019-05-26T23:32:26.541Z,17.32
2019-05-26T23:34:55.083Z,18.82
2019-05-26T23:37:23.506Z,18.80
2019-05-26T23:39:52.048Z,18.52
2019-05-26T23:42:20.851Z,18.35
2019-05-26T23:44:49.172Z,17.02
2019-05-26T23:47:17.628Z,16.45
2019-05-26T23:49:46.241Z,17.57
2019-05-26T23:52:14.662Z,18.20
2019-05-26T23:54:43.112Z,18.02
2019-05-26T23:57:11.453Z,18.35
2019-05-26T23:59:39.896Z,17.48
